SCSE

Details ICAO SCSE (LSC)
Name LA FLORIDA
Region Chile
Timezone America/Santiago (UTC-3.0)
Plans Departing 39
Arriving 65
Stats Elevation 481 ft / 147 m (AMSL)
Location -29.916976° -71.198962°
Runways 2
Magnetic Variation 0.291° E
Sunrise 2017-12-12 09:38:53 UTC / 2017-12-12 06:38:53 Local
Sunset 2017-12-12 23:41:13 UTC / 2017-12-12 20:41:13 Local
Advertisement - Login to hide

Runways

ID Width Length Bearing (true) Bearing (mag) Surface Threshold Offset Overrun Length
11 148 ft / 45 m 6,346 ft / 1,934 m 116.04° 115.75° Asphalt 0 ft / 0 m 100 ft / 30 m
11R 105 ft / 32 m 4,452 ft / 1,357 m 116.04° 115.75° Dirt 0 ft / 0 m 0 ft / 0 m
29 148 ft / 45 m 6,346 ft / 1,934 m 296.03° 295.74° Asphalt 0 ft / 0 m 100 ft / 30 m
29L 105 ft / 32 m 4,452 ft / 1,357 m 296.04° 295.75° Dirt 0 ft / 0 m 0 ft / 0 m

Map

Weather


0- 5 10 15 20 25 30 35+ Temperature / ° C

Clouds and Precipitation
Forecast for 2017-12-13 06:00 UTC. Updated an hour ago

Ground ~20,000 ft ~40,000 ft Winds

METAR

SCSE 130200Z 31002KT CAVOK 15/11 Q1018

TAF

TAF SCSE 122234Z 1300/1324 28004KT 9999 SCT025 TX22/1319Z TN12/1310Z BECMG 1300/1302 30004KT CAVOK TEMPO 1310/1314 SCT010 BECMG 1315/1317 28008KT

Frequencies

Ground 121.90 MHz GND
Approach 128.10 MHz SANTIAGO APP
Tower 118.60 MHz LA SERENA TWR
Warning: Do not use this data for real-world aviation or navigation. No guarantee of current accuracy is given.